createdAt,value
2023-05-15T00:03:34.663Z,19.45
2023-05-15T00:06:03.455Z,19.44
2023-05-15T00:08:32.286Z,19.43
2023-05-15T00:11:02.350Z,19.42
2023-05-15T00:13:31.407Z,19.42
2023-05-15T00:16:00.371Z,19.42
2023-05-15T00:18:29.885Z,19.41
2023-05-15T00:20:58.150Z,19.40
2023-05-15T00:23:29.517Z,19.41
2023-05-15T00:25:58.763Z,19.40
2023-05-15T00:28:26.915Z,19.40
2023-05-15T00:30:54.997Z,19.39
2023-05-15T00:33:23.923Z,19.37
2023-05-15T00:35:52.919Z,19.36
2023-05-15T00:38:21.473Z,19.35
2023-05-15T00:40:49.859Z,19.33
2023-05-15T00:43:19.628Z,19.30
2023-05-15T00:45:48.459Z,19.29
2023-05-15T00:48:18.635Z,19.28
2023-05-15T00:50:47.396Z,19.25
2023-05-15T00:53:16.237Z,19.23
2023-05-15T00:55:47.350Z,19.20
2023-05-15T00:58:18.438Z,19.19
2023-05-15T01:00:49.962Z,19.16
2023-05-15T01:03:18.429Z,19.13
2023-05-15T01:05:50.447Z,19.10
2023-05-15T01:08:23.962Z,19.09
2023-05-15T01:10:54.659Z,19.06
2023-05-15T01:13:24.515Z,19.05
2023-05-15T01:15:55.034Z,19.03
2023-05-15T01:18:23.335Z,19.00
2023-05-15T01:21:19.962Z,18.98
2023-05-15T01:24:26.323Z,18.97
2023-05-15T01:27:30.942Z,18.95
2023-05-15T01:30:27.108Z,18.91
2023-05-15T01:33:18.360Z,18.88
2023-05-15T01:36:02.011Z,18.86
2023-05-15T01:38:57.070Z,18.84
2023-05-15T01:41:29.300Z,18.83
2023-05-15T01:44:07.660Z,18.81
2023-05-15T01:46:41.844Z,18.80
2023-05-15T01:49:13.936Z,18.77
2023-05-15T01:51:44.852Z,18.76
2023-05-15T01:54:15.129Z,18.74
2023-05-15T01:56:44.253Z,18.74
2023-05-15T01:59:13.668Z,18.73
2023-05-15T02:01:44.760Z,18.72
2023-05-15T02:04:14.467Z,18.71
2023-05-15T02:06:44.998Z,18.70
2023-05-15T02:09:14.975Z,18.69
2023-05-15T02:11:43.595Z,18.67
2023-05-15T02:14:13.203Z,18.66
2023-05-15T02:16:41.296Z,18.64
2023-05-15T02:19:10.829Z,18.63
2023-05-15T02:21:39.127Z,18.61
2023-05-15T02:24:07.708Z,18.60
2023-05-15T02:26:58.953Z,18.60
2023-05-15T02:29:51.942Z,18.60
2023-05-15T02:32:35.138Z,18.60
2023-05-15T02:35:06.762Z,18.58
2023-05-15T02:37:38.636Z,18.57
2023-05-15T02:40:13.462Z,18.56
2023-05-15T02:42:44.486Z,18.54
2023-05-15T02:45:13.410Z,18.53
2023-05-15T02:47:42.783Z,18.52
2023-05-15T02:50:12.100Z,18.50
2023-05-15T02:52:41.151Z,18.49
2023-05-15T02:55:11.064Z,18.47
2023-05-15T02:57:39.627Z,18.46
2023-05-15T03:00:08.342Z,18.46
2023-05-15T03:02:38.272Z,18.45
2023-05-15T03:05:07.962Z,18.45
2023-05-15T03:07:37.346Z,18.44
2023-05-15T03:10:06.386Z,18.42
2023-05-15T03:12:35.287Z,18.40
2023-05-15T03:15:06.454Z,18.38
2023-05-15T03:17:34.613Z,18.36
2023-05-15T03:20:02.774Z,18.34
2023-05-15T03:22:31.142Z,18.31
2023-05-15T03:24:59.278Z,18.29
2023-05-15T03:27:28.884Z,18.26
2023-05-15T03:29:57.072Z,18.24
2023-05-15T03:32:25.857Z,18.22
2023-05-15T03:34:53.994Z,18.20
2023-05-15T03:37:22.176Z,18.18
2023-05-15T03:39:50.291Z,18.15
2023-05-15T03:42:18.565Z,18.13
2023-05-15T03:44:46.755Z,18.11
2023-05-15T03:47:14.953Z,18.08
2023-05-15T03:49:44.402Z,18.06
2023-05-15T03:52:12.790Z,18.05
2023-05-15T03:54:42.832Z,18.03
2023-05-15T03:57:11.492Z,18.01
2023-05-15T03:59:39.658Z,18.00
2023-05-15T04:02:07.961Z,17.98
2023-05-15T04:04:36.497Z,17.96
2023-05-15T04:07:05.549Z,17.94
2023-05-15T04:09:33.971Z,17.92
2023-05-15T04:12:02.344Z,17.88
2023-05-15T04:14:31.015Z,17.85
2023-05-15T04:16:59.205Z,17.83
2023-05-15T04:19:27.476Z,17.80
2023-05-15T04:21:55.675Z,17.79
2023-05-15T04:24:24.779Z,17.77
2023-05-15T04:26:53.820Z,17.74
2023-05-15T04:29:23.635Z,17.72
2023-05-15T04:31:51.801Z,17.71
2023-05-15T04:34:20.486Z,17.70
2023-05-15T04:36:50.137Z,17.69
2023-05-15T04:39:19.202Z,17.68
2023-05-15T04:41:47.740Z,17.67
2023-05-15T04:44:15.962Z,17.65
2023-05-15T04:46:45.058Z,17.63
2023-05-15T04:49:13.545Z,17.61
2023-05-15T04:51:42.174Z,17.59
2023-05-15T04:54:10.141Z,17.57
2023-05-15T04:56:38.688Z,17.55
2023-05-15T04:59:06.873Z,17.53
2023-05-15T05:01:36.919Z,17.52
2023-05-15T05:04:05.974Z,17.50
2023-05-15T05:06:34.081Z,17.49
2023-05-15T05:09:02.289Z,17.48
2023-05-15T05:11:30.426Z,17.46
2023-05-15T05:13:58.447Z,17.45
2023-05-15T05:16:26.535Z,17.45
2023-05-15T05:18:54.994Z,17.46
2023-05-15T05:21:23.141Z,17.45
2023-05-15T05:23:51.167Z,17.45
2023-05-15T05:26:19.288Z,17.43
2023-05-15T05:28:47.832Z,17.41
2023-05-15T05:31:15.984Z,17.41
2023-05-15T05:33:45.189Z,17.40
2023-05-15T05:36:14.319Z,17.40
2023-05-15T05:38:42.555Z,17.40
2023-05-15T05:41:11.042Z,17.40
2023-05-15T05:43:39.187Z,17.41
2023-05-15T05:46:07.340Z,17.43
2023-05-15T05:48:36.643Z,17.44
2023-05-15T05:51:06.361Z,17.47
2023-05-15T05:53:34.485Z,17.50
2023-05-15T05:56:03.460Z,17.53
2023-05-15T05:58:31.612Z,17.57
2023-05-15T06:01:00.440Z,17.60
2023-05-15T06:03:29.322Z,17.64
2023-05-15T06:05:58.086Z,17.67
2023-05-15T06:08:28.863Z,17.71
2023-05-15T06:10:57.391Z,17.76
2023-05-15T06:13:25.514Z,17.80
2023-05-15T06:15:54.600Z,17.85
2023-05-15T06:18:22.576Z,17.92
2023-05-15T06:20:51.191Z,17.96
2023-05-15T06:23:20.634Z,18.02
2023-05-15T06:25:50.004Z,18.09
2023-05-15T06:28:19.188Z,18.16
2023-05-15T06:30:49.841Z,18.24
2023-05-15T06:33:18.021Z,18.31
2023-05-15T06:35:46.173Z,18.38
2023-05-15T06:38:14.613Z,18.45
2023-05-15T06:40:42.745Z,18.54
2023-05-15T06:43:10.742Z,18.63
2023-05-15T06:45:38.992Z,18.71
2023-05-15T06:48:07.812Z,18.81
2023-05-15T06:50:35.967Z,18.92
2023-05-15T06:53:04.217Z,19.03
2023-05-15T06:55:32.197Z,19.13
2023-05-15T06:58:00.708Z,19.23
2023-05-15T07:00:30.515Z,19.34
2023-05-15T07:02:58.628Z,19.44
2023-05-15T07:05:27.540Z,19.53
2023-05-15T07:07:57.682Z,19.63
2023-05-15T07:10:26.051Z,19.73
2023-05-15T07:12:55.048Z,19.83
2023-05-15T07:15:23.495Z,19.94
2023-05-15T07:17:52.397Z,20.04
2023-05-15T07:20:20.766Z,20.15
2023-05-15T07:22:56.438Z,20.26
2023-05-15T07:25:27.740Z,20.37
2023-05-15T07:27:56.419Z,20.47
2023-05-15T07:30:25.694Z,20.59
2023-05-15T07:32:54.609Z,20.70
2023-05-15T07:35:23.008Z,20.79
2023-05-15T07:37:51.603Z,20.90
2023-05-15T07:40:19.788Z,20.99
2023-05-15T07:42:48.520Z,21.09
2023-05-15T07:45:16.714Z,21.19
2023-05-15T07:47:46.666Z,21.29
2023-05-15T07:50:15.981Z,21.37
2023-05-15T07:52:44.862Z,21.43
2023-05-15T07:55:13.215Z,21.48
2023-05-15T07:57:42.031Z,21.54
2023-05-15T08:00:11.612Z,21.61
2023-05-15T08:02:40.761Z,21.68
2023-05-15T08:05:11.280Z,21.76
2023-05-15T08:07:39.919Z,21.87
2023-05-15T08:10:09.033Z,21.99
2023-05-15T08:12:37.637Z,22.10
2023-05-15T08:15:08.061Z,22.22
2023-05-15T08:17:36.228Z,22.32
2023-05-15T08:20:05.495Z,22.42
2023-05-15T08:22:33.544Z,22.52
2023-05-15T08:25:01.796Z,22.61
2023-05-15T08:27:30.557Z,22.72
2023-05-15T08:29:59.048Z,22.84
2023-05-15T08:32:27.132Z,22.94
2023-05-15T08:34:55.283Z,23.06
2023-05-15T08:37:23.730Z,23.17
2023-05-15T08:39:51.798Z,23.27
2023-05-15T08:42:28.736Z,23.37
2023-05-15T08:44:56.969Z,23.49
2023-05-15T08:47:28.721Z,23.58
2023-05-15T08:50:23.858Z,23.64
2023-05-15T08:52:54.115Z,23.72
2023-05-15T08:55:22.252Z,23.79
2023-05-15T08:57:51.014Z,23.87
2023-05-15T09:00:21.441Z,23.97
2023-05-15T09:02:49.964Z,24.06
2023-05-15T09:05:18.305Z,24.18
2023-05-15T09:07:47.983Z,24.28
2023-05-15T09:10:16.828Z,24.37
2023-05-15T09:12:45.316Z,24.46
2023-05-15T09:15:16.340Z,24.54
2023-05-15T09:17:45.478Z,24.67
2023-05-15T09:20:32.571Z,24.79
2023-05-15T09:23:03.582Z,24.92
2023-05-15T09:25:40.121Z,25.05
2023-05-15T09:28:34.607Z,25.21
2023-05-15T09:31:05.560Z,25.42
2023-05-15T09:33:39.105Z,25.61
2023-05-15T09:36:09.060Z,25.75
2023-05-15T09:38:42.238Z,25.88
2023-05-15T09:41:11.331Z,26.01
2023-05-15T09:43:41.321Z,26.15
2023-05-15T09:46:09.995Z,26.25
2023-05-15T09:48:38.859Z,26.33
2023-05-15T09:51:18.679Z,26.39
2023-05-15T09:53:53.631Z,26.45
2023-05-15T09:56:22.583Z,26.53
2023-05-15T09:58:59.748Z,26.60
2023-05-15T10:01:28.050Z,26.65
2023-05-15T10:04:03.882Z,26.59
2023-05-15T10:06:42.687Z,26.43
2023-05-15T10:09:12.682Z,26.23
2023-05-15T10:11:50.175Z,26.05
2023-05-15T10:14:20.152Z,25.84
2023-05-15T10:16:49.337Z,25.62
2023-05-15T10:19:20.450Z,25.38
2023-05-15T10:21:49.273Z,25.16
2023-05-15T10:24:20.879Z,25.08
2023-05-15T10:26:49.541Z,25.13
2023-05-15T10:29:22.137Z,25.18
2023-05-15T10:31:51.319Z,25.14
2023-05-15T10:34:20.717Z,25.07
2023-05-15T10:36:50.612Z,24.94
2023-05-15T10:39:20.092Z,24.80
2023-05-15T10:41:51.163Z,24.72
2023-05-15T10:44:20.698Z,24.71
2023-05-15T10:46:49.857Z,24.72
2023-05-15T10:49:18.076Z,24.70
2023-05-15T10:51:46.778Z,24.71
2023-05-15T10:54:15.486Z,24.75
2023-05-15T10:56:44.194Z,24.81
2023-05-15T10:59:12.795Z,24.81
2023-05-15T11:01:42.048Z,24.75
2023-05-15T11:04:12.253Z,24.66
2023-05-15T11:06:45.868Z,24.58
2023-05-15T11:09:36.191Z,24.50
2023-05-15T11:12:06.534Z,24.48
2023-05-15T11:14:54.781Z,24.47
2023-05-15T11:17:24.338Z,24.35
2023-05-15T11:19:52.420Z,24.21
2023-05-15T11:22:22.803Z,24.14
2023-05-15T11:24:58.068Z,24.11
2023-05-15T11:27:38.802Z,24.12
2023-05-15T11:30:12.210Z,24.13
2023-05-15T11:32:57.848Z,24.04
2023-05-15T11:35:33.330Z,23.90
2023-05-15T11:38:18.090Z,23.74
2023-05-15T11:40:51.851Z,23.55
2023-05-15T11:43:22.828Z,23.43
2023-05-15T11:45:54.523Z,23.34
2023-05-15T11:48:25.279Z,23.23
2023-05-15T11:50:53.600Z,23.09
2023-05-15T11:53:22.808Z,22.96
2023-05-15T11:55:53.495Z,22.87
2023-05-15T11:58:24.045Z,22.85
2023-05-15T12:00:53.590Z,22.87
2023-05-15T12:03:25.837Z,22.93
2023-05-15T12:05:59.645Z,23.12
2023-05-15T12:08:36.955Z,23.37
2023-05-15T12:11:05.993Z,23.57
2023-05-15T12:13:35.285Z,23.66
2023-05-15T12:16:04.770Z,23.75
2023-05-15T12:18:34.009Z,23.79
2023-05-15T12:21:02.097Z,23.83
2023-05-15T12:23:30.151Z,23.88
2023-05-15T12:26:02.156Z,23.85
2023-05-15T12:28:34.131Z,23.81
2023-05-15T12:31:02.816Z,23.75
2023-05-15T12:33:30.948Z,23.61
2023-05-15T12:36:01.747Z,23.48
2023-05-15T12:38:30.486Z,23.46
2023-05-15T12:40:58.878Z,23.54
2023-05-15T12:43:27.831Z,23.71
2023-05-15T12:45:57.406Z,23.90
2023-05-15T12:48:32.967Z,24.04
2023-05-15T12:51:08.731Z,24.14
2023-05-15T12:53:37.192Z,24.21
2023-05-15T12:56:05.830Z,24.22
2023-05-15T12:58:34.276Z,24.20
2023-05-15T13:01:03.782Z,24.19
2023-05-15T13:03:32.804Z,24.23
2023-05-15T13:06:03.088Z,24.20
2023-05-15T13:08:31.323Z,24.23
2023-05-15T13:11:00.342Z,24.27
2023-05-15T13:13:47.095Z,24.26
2023-05-15T13:16:26.418Z,24.23
2023-05-15T13:18:56.684Z,24.16
2023-05-15T13:21:25.094Z,24.14
2023-05-15T13:23:53.588Z,24.06
2023-05-15T13:26:22.089Z,23.90
2023-05-15T13:28:50.643Z,23.68
2023-05-15T13:31:18.720Z,23.53
2023-05-15T13:33:48.069Z,23.37
2023-05-15T13:36:16.462Z,23.29
2023-05-15T13:38:44.716Z,23.20
2023-05-15T13:41:14.001Z,23.12
2023-05-15T13:43:42.653Z,23.05
2023-05-15T13:46:10.788Z,23.06
2023-05-15T13:48:39.073Z,23.13
2023-05-15T13:51:07.307Z,23.22
2023-05-15T13:53:35.408Z,23.33
2023-05-15T13:56:04.093Z,23.44
2023-05-15T13:58:32.550Z,23.41
2023-05-15T14:01:05.746Z,23.38
2023-05-15T14:03:34.275Z,23.43
2023-05-15T14:06:02.714Z,23.58
2023-05-15T14:08:30.847Z,23.83
2023-05-15T14:10:58.714Z,24.00
2023-05-15T14:13:26.802Z,24.11
2023-05-15T14:15:55.460Z,24.16
2023-05-15T14:18:23.838Z,24.25
2023-05-15T14:20:52.075Z,24.31
2023-05-15T14:23:20.608Z,24.45
2023-05-15T14:25:48.780Z,24.57
2023-05-15T14:28:17.013Z,24.51
2023-05-15T14:30:45.116Z,24.37
2023-05-15T14:33:13.543Z,24.43
2023-05-15T14:35:41.823Z,24.53
2023-05-15T14:38:10.066Z,24.54
2023-05-15T14:40:38.452Z,24.46
2023-05-15T14:43:06.547Z,24.36
2023-05-15T14:45:35.392Z,24.24
2023-05-15T14:48:04.206Z,24.19
2023-05-15T14:50:33.972Z,24.14
2023-05-15T14:53:03.815Z,24.06
2023-05-15T14:55:33.533Z,23.94
2023-05-15T14:58:01.521Z,23.91
2023-05-15T15:00:30.627Z,23.93
2023-05-15T15:02:59.789Z,23.84
2023-05-15T15:05:27.951Z,23.75
2023-05-15T15:08:07.420Z,23.81
2023-05-15T15:10:40.193Z,23.92
2023-05-15T15:13:08.851Z,24.02
2023-05-15T15:15:38.007Z,24.09
2023-05-15T15:18:07.175Z,24.14
2023-05-15T15:20:35.362Z,24.21
2023-05-15T15:23:03.780Z,24.22
2023-05-15T15:25:33.159Z,24.17
2023-05-15T15:28:02.587Z,24.08
2023-05-15T15:30:30.788Z,23.97
2023-05-15T15:32:58.962Z,23.92
2023-05-15T15:35:27.495Z,23.89
2023-05-15T15:37:55.525Z,23.82
2023-05-15T15:40:23.927Z,23.85
2023-05-15T15:42:52.750Z,23.99
2023-05-15T15:45:20.952Z,24.15
2023-05-15T15:47:48.978Z,24.32
2023-05-15T15:50:17.376Z,24.40
2023-05-15T15:52:45.561Z,24.39
2023-05-15T15:55:14.124Z,24.42
2023-05-15T15:57:42.455Z,24.44
2023-05-15T16:00:11.139Z,24.38
2023-05-15T16:02:40.859Z,24.36
2023-05-15T16:05:09.857Z,24.38
2023-05-15T16:07:37.998Z,24.32
2023-05-15T16:12:39.999Z,24.19
2023-05-15T16:15:20.916Z,24.04
2023-05-15T16:17:53.837Z,23.95
2023-05-15T16:20:23.491Z,23.88
2023-05-15T16:22:52.466Z,23.78
2023-05-15T16:25:21.829Z,23.62
2023-05-15T16:27:50.012Z,23.51
2023-05-15T16:30:18.563Z,23.45
2023-05-15T16:32:48.030Z,23.42
2023-05-15T16:35:16.521Z,23.34
2023-05-15T16:37:44.865Z,23.23
2023-05-15T16:40:13.736Z,23.15
2023-05-15T16:42:44.431Z,23.06
2023-05-15T16:45:12.534Z,23.03
2023-05-15T16:47:41.333Z,23.06
2023-05-15T16:50:10.490Z,23.00
2023-05-15T16:52:38.914Z,22.95
2023-05-15T16:55:07.551Z,22.93
2023-05-15T16:57:35.854Z,22.90
2023-05-15T17:00:08.163Z,22.78
2023-05-15T17:02:37.078Z,22.64
2023-05-15T17:05:07.040Z,22.57
2023-05-15T17:07:35.967Z,22.55
2023-05-15T17:10:05.199Z,22.52
2023-05-15T17:12:33.695Z,22.47
2023-05-15T17:15:03.882Z,22.40
2023-05-15T17:17:32.005Z,22.37
2023-05-15T17:20:02.614Z,22.36
2023-05-15T17:22:31.353Z,22.33
2023-05-15T17:24:59.664Z,22.30
2023-05-15T17:27:27.928Z,22.27
2023-05-15T17:29:56.750Z,22.25
2023-05-15T17:32:26.235Z,22.22
2023-05-15T17:34:55.611Z,22.14
2023-05-15T17:37:23.751Z,22.09
2023-05-15T17:39:53.343Z,22.04
2023-05-15T17:42:22.516Z,21.98
2023-05-15T17:44:50.994Z,21.92
2023-05-15T17:47:19.124Z,21.91
2023-05-15T17:49:47.866Z,21.90
2023-05-15T17:52:16.230Z,21.85
2023-05-15T17:54:44.153Z,21.79
2023-05-15T17:57:12.185Z,21.76
2023-05-15T17:59:40.299Z,21.75
2023-05-15T18:02:08.445Z,21.74
2023-05-15T18:04:37.764Z,21.70
2023-05-15T18:07:07.466Z,21.67
2023-05-15T18:09:35.775Z,21.67
2023-05-15T18:12:04.772Z,21.68
2023-05-15T18:14:33.418Z,21.70
2023-05-15T18:17:02.353Z,21.72
2023-05-15T18:19:31.008Z,21.74
2023-05-15T18:22:00.036Z,21.76
2023-05-15T18:24:28.673Z,21.77
2023-05-15T18:26:56.957Z,21.78
2023-05-15T18:29:26.134Z,21.79
2023-05-15T18:31:54.322Z,21.81
2023-05-15T18:34:22.588Z,21.83
2023-05-15T18:36:50.960Z,21.82
2023-05-15T18:39:19.586Z,21.83
2023-05-15T18:41:47.993Z,21.80
2023-05-15T18:44:17.677Z,21.75
2023-05-15T18:46:45.860Z,21.69
2023-05-15T18:49:14.064Z,21.63
2023-05-15T18:51:42.354Z,21.60
2023-05-15T18:54:12.970Z,21.58
2023-05-15T18:56:43.276Z,21.55
2023-05-15T18:59:11.593Z,21.53
2023-05-15T19:01:40.306Z,21.52
2023-05-15T19:04:12.213Z,21.49
2023-05-15T19:06:42.961Z,21.46
2023-05-15T19:09:11.451Z,21.43
2023-05-15T19:11:39.718Z,21.41
2023-05-15T19:14:09.295Z,21.36
2023-05-15T19:16:37.976Z,21.32
2023-05-15T19:19:06.378Z,21.30
2023-05-15T19:21:34.467Z,21.27
2023-05-15T19:24:02.571Z,21.24
2023-05-15T19:26:30.820Z,21.23
2023-05-15T19:28:58.899Z,21.23
2023-05-15T19:31:32.016Z,21.21
2023-05-15T19:34:00.876Z,21.19
2023-05-15T19:36:28.975Z,21.16
2023-05-15T19:38:57.581Z,21.14
2023-05-15T19:41:25.762Z,21.12
2023-05-15T19:43:53.895Z,21.09
2023-05-15T19:46:22.033Z,21.05
2023-05-15T19:48:50.565Z,21.02
2023-05-15T19:51:19.170Z,20.98
2023-05-15T19:53:48.879Z,20.95
2023-05-15T19:56:20.304Z,20.92
2023-05-15T19:58:48.936Z,20.89
2023-05-15T20:01:18.419Z,20.86
2023-05-15T20:07:38.941Z,20.81
2023-05-15T20:10:08.327Z,20.81
2023-05-15T20:12:37.512Z,20.80
2023-05-15T20:15:06.830Z,20.79
2023-05-15T20:17:35.614Z,20.79
2023-05-15T20:20:05.663Z,20.79
2023-05-15T20:22:33.893Z,20.79
2023-05-15T20:25:02.787Z,20.78
2023-05-15T20:27:32.435Z,20.78
2023-05-15T20:30:03.305Z,20.77
2023-05-15T20:32:33.094Z,20.75
2023-05-15T20:35:03.089Z,20.74
2023-05-15T20:37:32.719Z,20.73
2023-05-15T20:40:01.184Z,20.72
2023-05-15T20:42:30.437Z,20.71
2023-05-15T20:44:59.538Z,20.69
2023-05-15T20:47:28.607Z,20.68
2023-05-15T20:49:57.248Z,20.66
2023-05-15T20:52:26.197Z,20.65
2023-05-15T20:54:54.933Z,20.63
2023-05-15T20:57:23.844Z,20.61
2023-05-15T20:59:51.973Z,20.59
2023-05-15T21:02:20.052Z,20.59
2023-05-15T21:04:48.668Z,20.57
2023-05-15T21:07:16.820Z,20.57
2023-05-15T21:09:45.980Z,20.57
2023-05-15T21:12:14.624Z,20.56
2023-05-15T21:14:42.791Z,20.56
2023-05-15T21:17:11.055Z,20.56
2023-05-15T21:19:40.012Z,20.55
2023-05-15T21:22:09.097Z,20.54
2023-05-15T21:24:37.853Z,20.54
2023-05-15T21:27:07.027Z,20.52
2023-05-15T21:29:35.226Z,20.50
2023-05-15T21:32:06.927Z,20.49
2023-05-15T21:34:34.964Z,20.48
2023-05-15T21:37:04.403Z,20.48
2023-05-15T21:39:32.610Z,20.47
2023-05-15T21:42:00.922Z,20.46
2023-05-15T21:44:29.453Z,20.45
2023-05-15T21:46:58.589Z,20.45
2023-05-15T21:49:27.660Z,20.44
2023-05-15T21:51:56.660Z,20.42
2023-05-15T21:54:26.624Z,20.41
2023-05-15T21:56:54.642Z,20.40
2023-05-15T21:59:22.738Z,20.39
2023-05-15T22:01:53.203Z,20.38
2023-05-15T22:04:23.142Z,20.38
2023-05-15T22:06:51.290Z,20.37
2023-05-15T22:09:21.610Z,20.37
2023-05-15T22:11:50.438Z,20.37
2023-05-15T22:14:19.187Z,20.37
2023-05-15T22:16:47.698Z,20.35
2023-05-15T22:19:31.604Z,20.33
2023-05-15T22:22:02.592Z,20.31
2023-05-15T22:24:31.187Z,20.29
2023-05-15T22:26:59.839Z,20.28
2023-05-15T22:29:28.038Z,20.26
2023-05-15T22:31:56.667Z,20.24
2023-05-15T22:34:26.443Z,20.22
2023-05-15T22:36:56.132Z,20.19
2023-05-15T22:39:24.176Z,20.17
2023-05-15T22:41:52.217Z,20.16
2023-05-15T22:44:21.548Z,20.15
2023-05-15T22:46:50.231Z,20.13
2023-05-15T22:49:19.430Z,20.12
2023-05-15T22:51:48.450Z,20.11
2023-05-15T22:54:17.413Z,20.10
2023-05-15T22:56:46.634Z,20.08
2023-05-15T22:59:16.060Z,20.07
2023-05-15T23:01:45.629Z,20.05
2023-05-15T23:04:14.238Z,20.03
2023-05-15T23:06:43.035Z,20.00
2023-05-15T23:09:11.134Z,19.98
2023-05-15T23:11:40.025Z,19.96
2023-05-15T23:14:08.979Z,19.93
2023-05-15T23:16:37.723Z,19.92
2023-05-15T23:19:06.042Z,19.90
2023-05-15T23:21:34.880Z,19.88
2023-05-15T23:24:03.601Z,19.87
2023-05-15T23:26:32.247Z,19.86
2023-05-15T23:29:01.046Z,19.85
2023-05-15T23:31:29.780Z,19.83
2023-05-15T23:33:58.659Z,19.81
2023-05-15T23:36:27.274Z,19.80
2023-05-15T23:38:55.471Z,19.78
2023-05-15T23:41:24.580Z,19.77
2023-05-15T23:43:54.323Z,19.75
2023-05-15T23:46:22.454Z,19.73
2023-05-15T23:48:50.963Z,19.70
2023-05-15T23:51:20.137Z,19.67
2023-05-15T23:53:49.605Z,19.65
2023-05-15T23:56:17.630Z,19.60
2023-05-15T23:58:46.435Z,19.58
